sensor_id;sensor_type;location;lat;lon;timestamp;P1;durP1;ratioP1;P2;durP2;ratioP2
51602;SDS011;37954;51.980;5.850;2024-01-30T00:02:20;9.98;;;7.63;;
51602;SDS011;37954;51.980;5.850;2024-01-30T00:06:32;8.03;;;6.70;;
51602;SDS011;37954;51.980;5.850;2024-01-30T00:10:44;9.83;;;7.37;;
51602;SDS011;37954;51.980;5.850;2024-01-30T00:14:56;10.00;;;7.27;;
51602;SDS011;37954;51.980;5.850;2024-01-30T00:19:07;9.77;;;7.10;;
51602;SDS011;37954;51.980;5.850;2024-01-30T00:23:20;10.13;;;8.00;;
51602;SDS011;37954;51.980;5.850;2024-01-30T00:27:31;10.37;;;7.53;;
51602;SDS011;37954;51.980;5.850;2024-01-30T00:31:43;9.57;;;7.10;;
51602;SDS011;37954;51.980;5.850;2024-01-30T00:35:54;11.00;;;7.60;;
51602;SDS011;37954;51.980;5.850;2024-01-30T00:40:06;10.43;;;7.43;;
51602;SDS011;37954;51.980;5.850;2024-01-30T00:44:19;12.37;;;7.50;;
51602;SDS011;37954;51.980;5.850;2024-01-30T00:48:30;11.23;;;7.43;;
51602;SDS011;37954;51.980;5.850;2024-01-30T00:52:42;9.53;;;7.07;;
51602;SDS011;37954;51.980;5.850;2024-01-30T00:56:56;9.50;;;7.33;;
51602;SDS011;37954;51.980;5.850;2024-01-30T01:01:08;8.20;;;7.30;;
51602;SDS011;37954;51.980;5.850;2024-01-30T01:05:20;8.17;;;7.23;;
51602;SDS011;37954;51.980;5.850;2024-01-30T01:09:32;12.57;;;7.37;;
51602;SDS011;37954;51.980;5.850;2024-01-30T01:13:43;9.50;;;6.60;;
51602;SDS011;37954;51.980;5.850;2024-01-30T01:17:55;10.20;;;7.10;;
51602;SDS011;37954;51.980;5.850;2024-01-30T01:22:07;10.03;;;7.50;;
51602;SDS011;37954;51.980;5.850;2024-01-30T01:26:19;10.13;;;7.23;;
51602;SDS011;37954;51.980;5.850;2024-01-30T01:30:31;8.77;;;7.40;;
51602;SDS011;37954;51.980;5.850;2024-01-30T01:34:43;9.37;;;7.60;;
51602;SDS011;37954;51.980;5.850;2024-01-30T01:38:54;8.47;;;6.90;;
51602;SDS011;37954;51.980;5.850;2024-01-30T01:43:06;9.77;;;7.27;;
51602;SDS011;37954;51.980;5.850;2024-01-30T01:47:18;9.53;;;7.30;;
51602;SDS011;37954;51.980;5.850;2024-01-30T01:51:30;9.83;;;7.27;;
51602;SDS011;37954;51.980;5.850;2024-01-30T01:55:45;9.23;;;7.23;;
51602;SDS011;37954;51.980;5.850;2024-01-30T01:59:57;9.70;;;7.07;;
51602;SDS011;37954;51.980;5.850;2024-01-30T02:04:09;8.60;;;6.73;;
51602;SDS011;37954;51.980;5.850;2024-01-30T02:08:21;8.03;;;6.63;;
51602;SDS011;37954;51.980;5.850;2024-01-30T02:12:33;8.10;;;6.50;;
51602;SDS011;37954;51.980;5.850;2024-01-30T02:16:45;8.43;;;6.80;;
51602;SDS011;37954;51.980;5.850;2024-01-30T02:20:58;11.67;;;7.00;;
51602;SDS011;37954;51.980;5.850;2024-01-30T02:25:13;8.87;;;6.77;;
51602;SDS011;37954;51.980;5.850;2024-01-30T02:29:24;10.37;;;7.40;;
51602;SDS011;37954;51.980;5.850;2024-01-30T02:33:36;7.80;;;6.67;;
51602;SDS011;37954;51.980;5.850;2024-01-30T02:37:48;10.00;;;7.67;;
51602;SDS011;37954;51.980;5.850;2024-01-30T02:42:00;10.53;;;7.20;;
51602;SDS011;37954;51.980;5.850;2024-01-30T02:46:11;8.10;;;6.90;;
51602;SDS011;37954;51.980;5.850;2024-01-30T02:50:23;8.57;;;6.83;;
51602;SDS011;37954;51.980;5.850;2024-01-30T02:54:35;9.40;;;6.67;;
51602;SDS011;37954;51.980;5.850;2024-01-30T02:58:47;8.00;;;6.40;;
51602;SDS011;37954;51.980;5.850;2024-01-30T03:02:58;8.87;;;6.60;;
51602;SDS011;37954;51.980;5.850;2024-01-30T03:07:10;13.77;;;7.47;;
51602;SDS011;37954;51.980;5.850;2024-01-30T03:11:22;9.00;;;7.40;;
51602;SDS011;37954;51.980;5.850;2024-01-30T03:15:34;9.83;;;7.27;;
51602;SDS011;37954;51.980;5.850;2024-01-30T03:19:46;7.57;;;6.30;;
51602;SDS011;37954;51.980;5.850;2024-01-30T03:23:57;9.07;;;7.17;;
51602;SDS011;37954;51.980;5.850;2024-01-30T03:28:09;8.07;;;6.50;;
51602;SDS011;37954;51.980;5.850;2024-01-30T03:32:21;8.63;;;6.73;;
51602;SDS011;37954;51.980;5.850;2024-01-30T03:36:32;8.50;;;6.37;;
51602;SDS011;37954;51.980;5.850;2024-01-30T03:40:45;13.63;;;7.43;;
51602;SDS011;37954;51.980;5.850;2024-01-30T03:44:57;13.03;;;8.30;;
51602;SDS011;37954;51.980;5.850;2024-01-30T03:49:09;11.53;;;8.00;;
51602;SDS011;37954;51.980;5.850;2024-01-30T03:53:21;8.70;;;7.10;;
51602;SDS011;37954;51.980;5.850;2024-01-30T03:57:33;9.13;;;7.20;;
51602;SDS011;37954;51.980;5.850;2024-01-30T04:01:46;11.27;;;7.30;;
51602;SDS011;37954;51.980;5.850;2024-01-30T04:05:58;9.93;;;7.23;;
51602;SDS011;37954;51.980;5.850;2024-01-30T04:10:10;12.27;;;8.20;;
51602;SDS011;37954;51.980;5.850;2024-01-30T04:14:21;10.90;;;7.77;;
51602;SDS011;37954;51.980;5.850;2024-01-30T04:18:33;10.77;;;8.43;;
51602;SDS011;37954;51.980;5.850;2024-01-30T04:22:45;8.27;;;7.03;;
51602;SDS011;37954;51.980;5.850;2024-01-30T04:26:57;9.60;;;7.80;;
51602;SDS011;37954;51.980;5.850;2024-01-30T04:31:09;8.33;;;7.20;;
51602;SDS011;37954;51.980;5.850;2024-01-30T04:35:21;11.53;;;7.80;;
51602;SDS011;37954;51.980;5.850;2024-01-30T04:39:36;8.13;;;6.87;;
51602;SDS011;37954;51.980;5.850;2024-01-30T04:43:48;9.50;;;7.40;;
51602;SDS011;37954;51.980;5.850;2024-01-30T04:48:00;9.13;;;7.33;;
51602;SDS011;37954;51.980;5.850;2024-01-30T04:52:12;13.40;;;8.33;;
51602;SDS011;37954;51.980;5.850;2024-01-30T04:56:23;12.60;;;8.23;;
51602;SDS011;37954;51.980;5.850;2024-01-30T05:00:35;9.17;;;7.63;;
51602;SDS011;37954;51.980;5.850;2024-01-30T05:04:47;11.77;;;7.47;;
51602;SDS011;37954;51.980;5.850;2024-01-30T05:08:59;9.97;;;7.77;;
51602;SDS011;37954;51.980;5.850;2024-01-30T05:13:19;11.17;;;7.80;;
51602;SDS011;37954;51.980;5.850;2024-01-30T05:17:30;9.47;;;7.90;;
51602;SDS011;37954;51.980;5.850;2024-01-30T05:21:42;12.10;;;7.83;;
51602;SDS011;37954;51.980;5.850;2024-01-30T05:25:54;9.60;;;7.43;;
51602;SDS011;37954;51.980;5.850;2024-01-30T05:30:06;10.47;;;7.57;;
51602;SDS011;37954;51.980;5.850;2024-01-30T05:34:18;15.00;;;8.13;;
51602;SDS011;37954;51.980;5.850;2024-01-30T05:38:30;9.50;;;7.50;;
51602;SDS011;37954;51.980;5.850;2024-01-30T05:42:43;12.07;;;7.83;;
51602;SDS011;37954;51.980;5.850;2024-01-30T05:46:55;11.10;;;8.00;;
51602;SDS011;37954;51.980;5.850;2024-01-30T05:51:07;10.07;;;7.63;;
51602;SDS011;37954;51.980;5.850;2024-01-30T05:55:19;13.23;;;8.50;;
51602;SDS011;37954;51.980;5.850;2024-01-30T05:59:31;11.13;;;7.33;;
51602;SDS011;37954;51.980;5.850;2024-01-30T06:03:43;11.13;;;8.30;;
51602;SDS011;37954;51.980;5.850;2024-01-30T06:07:55;12.90;;;7.53;;
51602;SDS011;37954;51.980;5.850;2024-01-30T06:12:07;11.97;;;7.07;;
51602;SDS011;37954;51.980;5.850;2024-01-30T06:16:19;10.07;;;7.17;;
51602;SDS011;37954;51.980;5.850;2024-01-30T06:20:32;12.97;;;7.37;;
51602;SDS011;37954;51.980;5.850;2024-01-30T06:24:44;14.03;;;8.80;;
51602;SDS011;37954;51.980;5.850;2024-01-30T06:28:56;14.10;;;9.03;;
51602;SDS011;37954;51.980;5.850;2024-01-30T06:33:08;9.83;;;7.37;;
51602;SDS011;37954;51.980;5.850;2024-01-30T06:37:19;8.23;;;6.87;;
51602;SDS011;37954;51.980;5.850;2024-01-30T06:41:31;8.33;;;6.37;;
51602;SDS011;37954;51.980;5.850;2024-01-30T06:45:43;10.20;;;6.47;;
51602;SDS011;37954;51.980;5.850;2024-01-30T06:49:55;9.80;;;6.90;;
51602;SDS011;37954;51.980;5.850;2024-01-30T06:54:07;12.43;;;7.55;;
51602;SDS011;37954;51.980;5.850;2024-01-30T06:58:18;8.68;;;7.60;;
51602;SDS011;37954;51.980;5.850;2024-01-30T07:02:30;11.00;;;7.20;;
51602;SDS011;37954;51.980;5.850;2024-01-30T07:06:42;10.57;;;7.37;;
51602;SDS011;37954;51.980;5.850;2024-01-30T07:10:53;9.43;;;6.50;;
51602;SDS011;37954;51.980;5.850;2024-01-30T07:15:11;10.33;;;6.73;;
51602;SDS011;37954;51.980;5.850;2024-01-30T07:19:23;11.90;;;6.83;;
51602;SDS011;37954;51.980;5.850;2024-01-30T07:23:35;12.07;;;7.03;;
51602;SDS011;37954;51.980;5.850;2024-01-30T07:27:50;11.90;;;7.85;;
51602;SDS011;37954;51.980;5.850;2024-01-30T07:32:01;8.70;;;6.60;;
51602;SDS011;37954;51.980;5.850;2024-01-30T07:36:13;7.00;;;6.00;;
51602;SDS011;37954;51.980;5.850;2024-01-30T07:40:25;10.10;;;6.77;;
51602;SDS011;37954;51.980;5.850;2024-01-30T07:44:37;11.18;;;6.00;;
51602;SDS011;37954;51.980;5.850;2024-01-30T07:48:48;9.15;;;5.70;;
51602;SDS011;37954;51.980;5.850;2024-01-30T07:53:04;10.00;;;6.15;;
51602;SDS011;37954;51.980;5.850;2024-01-30T07:57:15;8.57;;;6.07;;
51602;SDS011;37954;51.980;5.850;2024-01-30T08:01:28;10.68;;;6.22;;
51602;SDS011;37954;51.980;5.850;2024-01-30T08:05:39;9.30;;;6.45;;
51602;SDS011;37954;51.980;5.850;2024-01-30T08:09:51;8.73;;;6.20;;
51602;SDS011;37954;51.980;5.850;2024-01-30T08:14:03;8.50;;;5.83;;
51602;SDS011;37954;51.980;5.850;2024-01-30T08:18:15;9.90;;;5.93;;
51602;SDS011;37954;51.980;5.850;2024-01-30T08:22:26;7.63;;;5.70;;
51602;SDS011;37954;51.980;5.850;2024-01-30T08:26:38;9.73;;;6.15;;
51602;SDS011;37954;51.980;5.850;2024-01-30T08:30:50;8.75;;;6.28;;
51602;SDS011;37954;51.980;5.850;2024-01-30T08:35:01;8.88;;;6.55;;
51602;SDS011;37954;51.980;5.850;2024-01-30T08:39:17;6.82;;;5.40;;
51602;SDS011;37954;51.980;5.850;2024-01-30T08:43:31;10.40;;;6.15;;
51602;SDS011;37954;51.980;5.850;2024-01-30T08:47:44;8.13;;;6.05;;
51602;SDS011;37954;51.980;5.850;2024-01-30T08:51:55;9.07;;;5.60;;
51602;SDS011;37954;51.980;5.850;2024-01-30T08:56:09;9.60;;;5.63;;
51602;SDS011;37954;51.980;5.850;2024-01-30T09:00:21;9.13;;;6.68;;
51602;SDS011;37954;51.980;5.850;2024-01-30T09:04:32;10.80;;;6.75;;
51602;SDS011;37954;51.980;5.850;2024-01-30T09:08:44;7.32;;;6.30;;
51602;SDS011;37954;51.980;5.850;2024-01-30T09:12:56;8.48;;;6.35;;
51602;SDS011;37954;51.980;5.850;2024-01-30T09:17:08;10.48;;;6.00;;
51602;SDS011;37954;51.980;5.850;2024-01-30T09:21:20;9.48;;;6.57;;
51602;SDS011;37954;51.980;5.850;2024-01-30T09:25:32;10.02;;;6.38;;
51602;SDS011;37954;51.980;5.850;2024-01-30T09:29:45;8.57;;;6.45;;
51602;SDS011;37954;51.980;5.850;2024-01-30T09:33:57;6.35;;;5.70;;
51602;SDS011;37954;51.980;5.850;2024-01-30T09:38:09;8.88;;;6.38;;
51602;SDS011;37954;51.980;5.850;2024-01-30T09:42:34;8.77;;;6.32;;
51602;SDS011;37954;51.980;5.850;2024-01-30T09:46:47;8.93;;;6.47;;
51602;SDS011;37954;51.980;5.850;2024-01-30T09:50:59;11.13;;;6.40;;
51602;SDS011;37954;51.980;5.850;2024-01-30T09:55:11;8.13;;;6.30;;
51602;SDS011;37954;51.980;5.850;2024-01-30T09:59:24;11.02;;;6.18;;
51602;SDS011;37954;51.980;5.850;2024-01-30T10:03:36;12.13;;;6.18;;
51602;SDS011;37954;51.980;5.850;2024-01-30T10:07:55;12.07;;;6.70;;
51602;SDS011;37954;51.980;5.850;2024-01-30T10:12:11;9.15;;;6.57;;
51602;SDS011;37954;51.980;5.850;2024-01-30T10:16:24;8.48;;;6.38;;
51602;SDS011;37954;51.980;5.850;2024-01-30T10:20:37;10.23;;;6.50;;
51602;SDS011;37954;51.980;5.850;2024-01-30T10:24:49;9.93;;;6.28;;
51602;SDS011;37954;51.980;5.850;2024-01-30T10:29:01;7.57;;;5.97;;
51602;SDS011;37954;51.980;5.850;2024-01-30T10:33:13;11.10;;;6.82;;
51602;SDS011;37954;51.980;5.850;2024-01-30T10:37:25;11.90;;;6.45;;
51602;SDS011;37954;51.980;5.850;2024-01-30T10:41:44;10.75;;;6.97;;
51602;SDS011;37954;51.980;5.850;2024-01-30T10:46:06;14.48;;;6.72;;
51602;SDS011;37954;51.980;5.850;2024-01-30T10:50:25;9.57;;;6.72;;
51602;SDS011;37954;51.980;5.850;2024-01-30T10:54:38;7.45;;;5.97;;
51602;SDS011;37954;51.980;5.850;2024-01-30T10:58:52;9.38;;;6.53;;
51602;SDS011;37954;51.980;5.850;2024-01-30T11:03:04;13.65;;;6.43;;
51602;SDS011;37954;51.980;5.850;2024-01-30T11:07:23;10.25;;;6.95;;
51602;SDS011;37954;51.980;5.850;2024-01-30T11:16:04;11.43;;;9.18;;
51602;SDS011;37954;51.980;5.850;2024-01-30T11:24:36;20.30;;;12.95;;
51602;SDS011;37954;51.980;5.850;2024-01-30T11:28:52;25.10;;;12.00;;
51602;SDS011;37954;51.980;5.850;2024-01-30T11:37:24;8.57;;;5.78;;
51602;SDS011;37954;51.980;5.850;2024-01-30T11:41:37;8.02;;;6.15;;
51602;SDS011;37954;51.980;5.850;2024-01-30T11:45:51;8.27;;;6.07;;
51602;SDS011;37954;51.980;5.850;2024-01-30T11:50:04;8.68;;;6.40;;
51602;SDS011;37954;51.980;5.850;2024-01-30T11:54:17;10.48;;;6.68;;
51602;SDS011;37954;51.980;5.850;2024-01-30T11:58:29;10.32;;;5.85;;
51602;SDS011;37954;51.980;5.850;2024-01-30T12:02:41;9.27;;;5.95;;
51602;SDS011;37954;51.980;5.850;2024-01-30T12:06:53;12.63;;;6.15;;
51602;SDS011;37954;51.980;5.850;2024-01-30T12:11:06;13.05;;;6.10;;
51602;SDS011;37954;51.980;5.850;2024-01-30T12:15:18;8.70;;;5.95;;
51602;SDS011;37954;51.980;5.850;2024-01-30T12:19:33;9.23;;;5.30;;
51602;SDS011;37954;51.980;5.850;2024-01-30T12:23:45;12.80;;;6.05;;
51602;SDS011;37954;51.980;5.850;2024-01-30T12:27:57;7.60;;;5.35;;
51602;SDS011;37954;51.980;5.850;2024-01-30T12:32:14;8.20;;;5.05;;
51602;SDS011;37954;51.980;5.850;2024-01-30T12:36:28;8.75;;;3.83;;
51602;SDS011;37954;51.980;5.850;2024-01-30T12:40:40;4.10;;;2.58;;
51602;SDS011;37954;51.980;5.850;2024-01-30T12:44:52;5.50;;;2.67;;
51602;SDS011;37954;51.980;5.850;2024-01-30T12:49:04;5.22;;;2.40;;
51602;SDS011;37954;51.980;5.850;2024-01-30T12:53:16;5.38;;;2.08;;
51602;SDS011;37954;51.980;5.850;2024-01-30T12:57:28;4.65;;;2.10;;
51602;SDS011;37954;51.980;5.850;2024-01-30T13:01:39;3.85;;;2.08;;
51602;SDS011;37954;51.980;5.850;2024-01-30T13:05:51;6.78;;;1.85;;
51602;SDS011;37954;51.980;5.850;2024-01-30T13:10:03;2.55;;;1.70;;
51602;SDS011;37954;51.980;5.850;2024-01-30T13:14:15;1.88;;;1.38;;
51602;SDS011;37954;51.980;5.850;2024-01-30T13:18:27;2.65;;;1.30;;
51602;SDS011;37954;51.980;5.850;2024-01-30T13:22:39;3.20;;;1.45;;
51602;SDS011;37954;51.980;5.850;2024-01-30T13:26:51;7.53;;;1.35;;
51602;SDS011;37954;51.980;5.850;2024-01-30T13:35:40;0.95;;;0.77;;
51602;SDS011;37954;51.980;5.850;2024-01-30T13:39:52;1.83;;;1.23;;
51602;SDS011;37954;51.980;5.850;2024-01-30T13:44:04;3.47;;;1.70;;
51602;SDS011;37954;51.980;5.850;2024-01-30T13:48:16;1.95;;;1.65;;
51602;SDS011;37954;51.980;5.850;2024-01-30T13:52:28;4.25;;;2.40;;
51602;SDS011;37954;51.980;5.850;2024-01-30T13:56:48;6.07;;;2.65;;
51602;SDS011;37954;51.980;5.850;2024-01-30T14:01:00;3.67;;;2.70;;
51602;SDS011;37954;51.980;5.850;2024-01-30T14:05:12;5.03;;;2.95;;
51602;SDS011;37954;51.980;5.850;2024-01-30T14:09:24;7.95;;;3.78;;
51602;SDS011;37954;51.980;5.850;2024-01-30T14:13:36;4.60;;;3.40;;
51602;SDS011;37954;51.980;5.850;2024-01-30T14:17:48;5.63;;;3.28;;
51602;SDS011;37954;51.980;5.850;2024-01-30T14:22:01;3.92;;;3.20;;
51602;SDS011;37954;51.980;5.850;2024-01-30T14:26:13;6.65;;;3.28;;
51602;SDS011;37954;51.980;5.850;2024-01-30T14:30:24;4.72;;;3.17;;
51602;SDS011;37954;51.980;5.850;2024-01-30T14:34:36;7.85;;;3.20;;
51602;SDS011;37954;51.980;5.850;2024-01-30T14:38:48;4.10;;;2.95;;
51602;SDS011;37954;51.980;5.850;2024-01-30T14:43:00;6.55;;;3.03;;
51602;SDS011;37954;51.980;5.850;2024-01-30T14:47:11;6.47;;;3.22;;
51602;SDS011;37954;51.980;5.850;2024-01-30T14:51:24;6.80;;;3.38;;
51602;SDS011;37954;51.980;5.850;2024-01-30T14:55:36;6.63;;;3.10;;
51602;SDS011;37954;51.980;5.850;2024-01-30T14:59:48;8.43;;;2.88;;
51602;SDS011;37954;51.980;5.850;2024-01-30T15:03:59;4.63;;;2.67;;
51602;SDS011;37954;51.980;5.850;2024-01-30T15:08:11;5.82;;;2.67;;
51602;SDS011;37954;51.980;5.850;2024-01-30T15:12:23;5.13;;;2.78;;
51602;SDS011;37954;51.980;5.850;2024-01-30T15:16:35;4.43;;;2.25;;
51602;SDS011;37954;51.980;5.850;2024-01-30T15:20:47;4.88;;;2.50;;
51602;SDS011;37954;51.980;5.850;2024-01-30T15:24:59;4.45;;;2.00;;
51602;SDS011;37954;51.980;5.850;2024-01-30T15:29:11;3.75;;;1.95;;
51602;SDS011;37954;51.980;5.850;2024-01-30T15:33:22;3.83;;;1.98;;
51602;SDS011;37954;51.980;5.850;2024-01-30T15:37:36;2.30;;;2.10;;
51602;SDS011;37954;51.980;5.850;2024-01-30T15:41:48;4.50;;;2.53;;
51602;SDS011;37954;51.980;5.850;2024-01-30T15:46:00;3.38;;;2.55;;
51602;SDS011;37954;51.980;5.850;2024-01-30T15:50:15;5.32;;;3.10;;
51602;SDS011;37954;51.980;5.850;2024-01-30T15:54:27;3.45;;;3.10;;
51602;SDS011;37954;51.980;5.850;2024-01-30T16:03:03;7.05;;;4.32;;
51602;SDS011;37954;51.980;5.850;2024-01-30T16:07:16;6.75;;;5.03;;
51602;SDS011;37954;51.980;5.850;2024-01-30T16:11:27;5.50;;;4.18;;
51602;SDS011;37954;51.980;5.850;2024-01-30T16:15:39;4.65;;;3.90;;
51602;SDS011;37954;51.980;5.850;2024-01-30T16:19:54;7.50;;;4.43;;
51602;SDS011;37954;51.980;5.850;2024-01-30T16:24:06;7.97;;;5.10;;
51602;SDS011;37954;51.980;5.850;2024-01-30T16:28:17;6.22;;;4.97;;
51602;SDS011;37954;51.980;5.850;2024-01-30T16:32:29;8.00;;;4.85;;
51602;SDS011;37954;51.980;5.850;2024-01-30T16:36:43;7.15;;;5.35;;
51602;SDS011;37954;51.980;5.850;2024-01-30T16:40:57;5.38;;;4.55;;
51602;SDS011;37954;51.980;5.850;2024-01-30T16:45:09;7.60;;;5.93;;
51602;SDS011;37954;51.980;5.850;2024-01-30T16:49:20;6.72;;;5.90;;
51602;SDS011;37954;51.980;5.850;2024-01-30T16:53:32;10.70;;;6.80;;
51602;SDS011;37954;51.980;5.850;2024-01-30T16:57:45;7.65;;;5.57;;
51602;SDS011;37954;51.980;5.850;2024-01-30T17:01:56;6.60;;;5.43;;
51602;SDS011;37954;51.980;5.850;2024-01-30T17:06:11;8.65;;;5.43;;
51602;SDS011;37954;51.980;5.850;2024-01-30T17:10:24;8.38;;;6.20;;
51602;SDS011;37954;51.980;5.850;2024-01-30T17:14:36;6.32;;;5.38;;
51602;SDS011;37954;51.980;5.850;2024-01-30T17:18:51;7.75;;;5.95;;
51602;SDS011;37954;51.980;5.850;2024-01-30T17:23:02;8.60;;;7.00;;
51602;SDS011;37954;51.980;5.850;2024-01-30T17:31:52;7.85;;;6.55;;
51602;SDS011;37954;51.980;5.850;2024-01-30T17:36:03;10.65;;;8.50;;
51602;SDS011;37954;51.980;5.850;2024-01-30T17:40:15;9.32;;;7.30;;
51602;SDS011;37954;51.980;5.850;2024-01-30T17:44:27;7.53;;;6.60;;
51602;SDS011;37954;51.980;5.850;2024-01-30T17:48:39;7.30;;;6.05;;
51602;SDS011;37954;51.980;5.850;2024-01-30T17:52:51;9.23;;;6.55;;
51602;SDS011;37954;51.980;5.850;2024-01-30T17:57:05;10.00;;;7.13;;
51602;SDS011;37954;51.980;5.850;2024-01-30T18:01:17;7.78;;;6.47;;
51602;SDS011;37954;51.980;5.850;2024-01-30T18:05:28;9.77;;;7.57;;
51602;SDS011;37954;51.980;5.850;2024-01-30T18:09:40;9.13;;;7.07;;
51602;SDS011;37954;51.980;5.850;2024-01-30T18:13:52;8.00;;;7.15;;
51602;SDS011;37954;51.980;5.850;2024-01-30T18:18:07;11.02;;;7.85;;
51602;SDS011;37954;51.980;5.850;2024-01-30T18:22:19;9.20;;;7.50;;
51602;SDS011;37954;51.980;5.850;2024-01-30T18:26:30;7.90;;;7.10;;
51602;SDS011;37954;51.980;5.850;2024-01-30T18:30:42;8.30;;;7.13;;
51602;SDS011;37954;51.980;5.850;2024-01-30T18:34:54;10.90;;;8.27;;
51602;SDS011;37954;51.980;5.850;2024-01-30T18:39:06;8.05;;;6.80;;
51602;SDS011;37954;51.980;5.850;2024-01-30T18:43:18;8.65;;;7.25;;
51602;SDS011;37954;51.980;5.850;2024-01-30T18:47:29;8.60;;;6.30;;
51602;SDS011;37954;51.980;5.850;2024-01-30T18:51:42;7.13;;;6.05;;
51602;SDS011;37954;51.980;5.850;2024-01-30T18:55:54;6.60;;;5.40;;
51602;SDS011;37954;51.980;5.850;2024-01-30T19:00:06;6.20;;;5.55;;
51602;SDS011;37954;51.980;5.850;2024-01-30T19:04:18;6.10;;;5.20;;
51602;SDS011;37954;51.980;5.850;2024-01-30T19:08:29;8.40;;;5.55;;
51602;SDS011;37954;51.980;5.850;2024-01-30T19:12:42;9.45;;;6.40;;
51602;SDS011;37954;51.980;5.850;2024-01-30T19:16:54;9.02;;;6.72;;
51602;SDS011;37954;51.980;5.850;2024-01-30T19:21:06;7.00;;;5.32;;
51602;SDS011;37954;51.980;5.850;2024-01-30T19:25:17;7.43;;;5.78;;
51602;SDS011;37954;51.980;5.850;2024-01-30T19:29:29;8.00;;;5.18;;
51602;SDS011;37954;51.980;5.850;2024-01-30T19:33:41;10.38;;;5.97;;
51602;SDS011;37954;51.980;5.850;2024-01-30T19:37:53;9.40;;;6.00;;
51602;SDS011;37954;51.980;5.850;2024-01-30T19:42:06;7.93;;;5.57;;
51602;SDS011;37954;51.980;5.850;2024-01-30T19:46:18;5.53;;;4.20;;
51602;SDS011;37954;51.980;5.850;2024-01-30T19:50:30;8.88;;;4.88;;
51602;SDS011;37954;51.980;5.850;2024-01-30T19:54:42;10.18;;;7.32;;
51602;SDS011;37954;51.980;5.850;2024-01-30T19:58:53;17.85;;;13.02;;
51602;SDS011;37954;51.980;5.850;2024-01-30T20:03:05;9.25;;;4.70;;
51602;SDS011;37954;51.980;5.850;2024-01-30T20:07:17;7.13;;;3.42;;
51602;SDS011;37954;51.980;5.850;2024-01-30T20:11:29;8.82;;;3.65;;
51602;SDS011;37954;51.980;5.850;2024-01-30T20:15:41;8.57;;;3.83;;
51602;SDS011;37954;51.980;5.850;2024-01-30T20:19:52;9.18;;;3.28;;
51602;SDS011;37954;51.980;5.850;2024-01-30T20:24:05;5.28;;;2.35;;
51602;SDS011;37954;51.980;5.850;2024-01-30T20:28:17;7.38;;;3.72;;
51602;SDS011;37954;51.980;5.850;2024-01-30T20:32:29;10.47;;;3.30;;
51602;SDS011;37954;51.980;5.850;2024-01-30T20:36:41;7.00;;;2.63;;
51602;SDS011;37954;51.980;5.850;2024-01-30T20:40:55;11.27;;;2.30;;
51602;SDS011;37954;51.980;5.850;2024-01-30T20:45:07;7.57;;;2.88;;
51602;SDS011;37954;51.980;5.850;2024-01-30T20:49:19;8.98;;;3.63;;
51602;SDS011;37954;51.980;5.850;2024-01-30T20:53:31;10.17;;;3.50;;
51602;SDS011;37954;51.980;5.850;2024-01-30T20:57:43;11.93;;;5.60;;
51602;SDS011;37954;51.980;5.850;2024-01-30T21:01:55;10.20;;;3.87;;
51602;SDS011;37954;51.980;5.850;2024-01-30T21:06:07;10.73;;;3.50;;
51602;SDS011;37954;51.980;5.850;2024-01-30T21:10:21;13.07;;;2.95;;
51602;SDS011;37954;51.980;5.850;2024-01-30T21:14:32;12.32;;;3.97;;
51602;SDS011;37954;51.980;5.850;2024-01-30T21:18:44;9.87;;;2.97;;
51602;SDS011;37954;51.980;5.850;2024-01-30T21:22:56;7.17;;;2.70;;
51602;SDS011;37954;51.980;5.850;2024-01-30T21:27:07;9.23;;;2.60;;
51602;SDS011;37954;51.980;5.850;2024-01-30T21:31:19;9.45;;;2.55;;
51602;SDS011;37954;51.980;5.850;2024-01-30T21:35:31;13.20;;;2.93;;
51602;SDS011;37954;51.980;5.850;2024-01-30T21:39:42;9.07;;;2.90;;
51602;SDS011;37954;51.980;5.850;2024-01-30T21:43:54;11.27;;;3.20;;
51602;SDS011;37954;51.980;5.850;2024-01-30T21:48:06;5.30;;;2.53;;
51602;SDS011;37954;51.980;5.850;2024-01-30T21:52:18;13.65;;;2.88;;
51602;SDS011;37954;51.980;5.850;2024-01-30T21:56:30;10.00;;;2.53;;
51602;SDS011;37954;51.980;5.850;2024-01-30T22:00:41;7.80;;;2.50;;
51602;SDS011;37954;51.980;5.850;2024-01-30T22:04:53;11.57;;;2.70;;
51602;SDS011;37954;51.980;5.850;2024-01-30T22:09:05;8.57;;;2.57;;
51602;SDS011;37954;51.980;5.850;2024-01-30T22:13:18;5.50;;;1.90;;
51602;SDS011;37954;51.980;5.850;2024-01-30T22:17:33;10.20;;;2.53;;
51602;SDS011;37954;51.980;5.850;2024-01-30T22:21:45;6.83;;;2.40;;
51602;SDS011;37954;51.980;5.850;2024-01-30T22:25:58;9.33;;;3.00;;
51602;SDS011;37954;51.980;5.850;2024-01-30T22:30:10;7.33;;;2.57;;
51602;SDS011;37954;51.980;5.850;2024-01-30T22:34:22;7.80;;;2.50;;
51602;SDS011;37954;51.980;5.850;2024-01-30T22:38:34;8.33;;;2.60;;
51602;SDS011;37954;51.980;5.850;2024-01-30T22:42:46;5.27;;;2.17;;
51602;SDS011;37954;51.980;5.850;2024-01-30T22:51:35;9.83;;;3.10;;
51602;SDS011;37954;51.980;5.850;2024-01-30T22:55:46;12.23;;;3.47;;
51602;SDS011;37954;51.980;5.850;2024-01-30T22:59:58;9.47;;;2.73;;
51602;SDS011;37954;51.980;5.850;2024-01-30T23:04:10;7.17;;;3.20;;
51602;SDS011;37954;51.980;5.850;2024-01-30T23:08:22;8.87;;;2.93;;
51602;SDS011;37954;51.980;5.850;2024-01-30T23:12:34;5.57;;;2.40;;
51602;SDS011;37954;51.980;5.850;2024-01-30T23:16:49;9.03;;;2.63;;
51602;SDS011;37954;51.980;5.850;2024-01-30T23:21:00;6.57;;;2.20;;
51602;SDS011;37954;51.980;5.850;2024-01-30T23:25:12;4.43;;;2.17;;
51602;SDS011;37954;51.980;5.850;2024-01-30T23:29:24;7.43;;;3.07;;
51602;SDS011;37954;51.980;5.850;2024-01-30T23:33:36;5.10;;;2.70;;
51602;SDS011;37954;51.980;5.850;2024-01-30T23:37:47;6.20;;;2.43;;
51602;SDS011;37954;51.980;5.850;2024-01-30T23:41:59;5.27;;;2.37;;
51602;SDS011;37954;51.980;5.850;2024-01-30T23:46:11;4.47;;;1.90;;
51602;SDS011;37954;51.980;5.850;2024-01-30T23:50:23;5.80;;;2.30;;
51602;SDS011;37954;51.980;5.850;2024-01-30T23:54:34;6.83;;;1.93;;
51602;SDS011;37954;51.980;5.850;2024-01-30T23:58:46;7.40;;;2.20;;
